createdAt,value
2023-02-06T00:03:42.281Z,23.90
2023-02-06T00:08:45.176Z,23.80
2023-02-06T00:13:48.771Z,23.80
2023-02-06T00:18:53.847Z,23.60
2023-02-06T00:23:58.681Z,23.60
2023-02-06T00:29:01.583Z,23.50
2023-02-06T00:34:05.807Z,23.50
2023-02-06T00:39:08.807Z,23.40
2023-02-06T00:44:11.835Z,23.40
2023-02-06T00:49:16.475Z,23.30
2023-02-06T00:54:20.774Z,23.30
2023-02-06T00:59:23.623Z,23.20
2023-02-06T01:04:27.870Z,23.30
2023-02-06T01:09:30.886Z,23.30
2023-02-06T01:14:33.690Z,23.20
2023-02-06T01:19:37.885Z,23.10
2023-02-06T01:24:40.739Z,23.10
2023-02-06T01:29:43.590Z,23.10
2023-02-06T01:34:47.814Z,23.00
2023-02-06T01:39:50.727Z,23.00
2023-02-06T01:45:32.365Z,23.00
2023-02-06T01:50:38.216Z,22.90
2023-02-06T01:55:42.584Z,22.80
2023-02-06T02:00:46.196Z,22.80
2023-02-06T02:05:52.517Z,22.80
2023-02-06T02:10:55.688Z,22.70
2023-02-06T02:16:03.633Z,22.70
2023-02-06T02:21:54.620Z,22.60
2023-02-06T02:27:35.017Z,22.60
2023-02-06T02:33:11.653Z,22.70
2023-02-06T02:38:26.694Z,22.60
2023-02-06T02:43:39.729Z,22.60
2023-02-06T02:48:45.106Z,22.60
2023-02-06T02:53:49.614Z,22.50
2023-02-06T02:58:56.099Z,22.50
2023-02-06T03:04:05.783Z,22.40
2023-02-06T03:09:17.334Z,22.40
2023-02-06T03:14:29.082Z,22.40
2023-02-06T03:19:35.507Z,22.30
2023-02-06T03:24:40.928Z,22.30
2023-02-06T03:29:45.509Z,22.30
2023-02-06T03:34:55.584Z,22.30
2023-02-06T03:40:01.583Z,22.20
2023-02-06T03:45:08.887Z,22.20
2023-02-06T03:50:13.102Z,22.20
2023-02-06T03:55:21.234Z,22.20
2023-02-06T04:00:25.435Z,22.20
2023-02-06T04:05:28.621Z,22.20
2023-02-06T04:10:32.937Z,22.10
2023-02-06T04:15:36.136Z,22.10
2023-02-06T04:20:41.039Z,22.10
2023-02-06T04:25:45.279Z,22.10
2023-02-06T04:30:49.010Z,22.00
2023-02-06T04:35:52.105Z,22.00
2023-02-06T04:40:56.295Z,22.00
2023-02-06T04:45:59.348Z,21.90
2023-02-06T04:51:02.179Z,21.90
2023-02-06T04:56:08.285Z,21.80
2023-02-06T05:01:11.152Z,21.80
2023-02-06T05:06:14.692Z,21.80
2023-02-06T05:11:18.889Z,21.80
2023-02-06T05:16:21.825Z,21.80
2023-02-06T05:21:25.761Z,21.80
2023-02-06T05:26:30.074Z,21.90
2023-02-06T05:31:33.043Z,22.00
2023-02-06T05:36:36.057Z,22.10
2023-02-06T05:41:40.248Z,22.10
2023-02-06T05:46:44.124Z,22.10
2023-02-06T05:51:47.142Z,22.20
2023-02-06T05:56:51.324Z,22.10
2023-02-06T06:01:54.274Z,22.00
2023-02-06T06:06:57.602Z,22.00
2023-02-06T06:12:01.766Z,21.90
2023-02-06T06:17:04.587Z,21.80
2023-02-06T06:22:07.490Z,21.70
2023-02-06T06:27:11.764Z,21.70
2023-02-06T06:32:14.619Z,21.70
2023-02-06T06:37:17.638Z,21.70
2023-02-06T06:42:21.908Z,21.70
2023-02-06T06:47:24.765Z,21.70
2023-02-06T06:52:27.582Z,21.70
2023-02-06T06:57:33.244Z,21.70
2023-02-06T07:02:36.102Z,21.70
2023-02-06T07:07:39.998Z,21.60
2023-02-06T07:12:44.332Z,21.60
2023-02-06T07:17:48.375Z,21.50
2023-02-06T07:22:51.499Z,21.40
2023-02-06T07:27:55.703Z,21.50
2023-02-06T07:32:58.497Z,21.40
2023-02-06T07:38:01.351Z,21.50
2023-02-06T07:43:07.276Z,21.50
2023-02-06T07:48:10.153Z,21.60
2023-02-06T07:53:13.086Z,21.50
2023-02-06T07:58:17.416Z,21.60
2023-02-06T08:03:20.866Z,21.50
2023-02-06T08:08:23.801Z,21.50
2023-02-06T08:13:28.073Z,21.50
2023-02-06T08:18:30.951Z,21.50
2023-02-06T08:23:33.901Z,21.40
2023-02-06T08:28:40.681Z,21.50
2023-02-06T08:33:45.505Z,21.60
2023-02-06T08:38:48.827Z,21.60
2023-02-06T08:43:55.242Z,21.60
2023-02-06T08:48:58.686Z,21.60
2023-02-06T08:54:04.091Z,21.60
2023-02-06T08:59:10.803Z,21.50
2023-02-06T09:04:14.846Z,21.50
2023-02-06T09:09:17.751Z,21.40
2023-02-06T09:14:21.991Z,21.40
2023-02-06T09:19:25.129Z,21.40
2023-02-06T09:24:30.142Z,21.40
2023-02-06T09:29:34.539Z,21.60
2023-02-06T09:34:37.591Z,21.60
2023-02-06T09:39:40.435Z,21.70
2023-02-06T09:44:48.876Z,21.80
2023-02-06T09:49:55.847Z,21.80
2023-02-06T09:55:06.669Z,21.80
2023-02-06T10:00:26.907Z,21.80
2023-02-06T10:05:40.947Z,21.80
2023-02-06T10:10:48.969Z,21.90
2023-02-06T10:15:56.991Z,21.90
2023-02-06T10:21:05.941Z,21.90
2023-02-06T10:26:17.145Z,22.00
2023-02-06T10:31:44.930Z,21.90
2023-02-06T10:36:58.345Z,21.90
2023-02-06T10:42:08.782Z,21.80
2023-02-06T10:47:24.560Z,21.70
2023-02-06T10:52:30.081Z,21.70
2023-02-06T10:57:34.859Z,21.60
2023-02-06T11:02:48.984Z,21.50
2023-02-06T11:07:58.071Z,21.60
2023-02-06T11:13:07.327Z,21.70
2023-02-06T11:18:17.118Z,21.80
2023-02-06T11:23:21.813Z,21.90
2023-02-06T11:28:25.336Z,21.90
2023-02-06T11:33:37.337Z,22.00
2023-02-06T11:38:54.327Z,21.90
2023-02-06T11:44:02.580Z,21.90
2023-02-06T11:49:24.875Z,21.90
2023-02-06T11:54:29.610Z,21.80
2023-02-06T11:59:34.828Z,21.70
2023-02-06T12:04:41.476Z,21.70
2023-02-06T12:09:44.863Z,21.70
2023-02-06T12:14:53.729Z,21.60
2023-02-06T12:20:06.989Z,21.60
2023-02-06T12:25:25.800Z,21.60
2023-02-06T12:30:34.704Z,21.60
2023-02-06T12:35:45.138Z,21.60
2023-02-06T12:40:57.884Z,21.60
2023-02-06T12:46:05.253Z,21.60
2023-02-06T12:51:20.115Z,21.50
2023-02-06T12:56:29.079Z,21.40
2023-02-06T13:01:46.490Z,21.40
2023-02-06T13:06:54.388Z,21.40
2023-02-06T13:12:08.960Z,21.40
2023-02-06T13:17:18.337Z,21.40
2023-02-06T13:22:49.352Z,21.40
2023-02-06T13:27:52.573Z,21.40
2023-02-06T13:32:58.001Z,21.40
2023-02-06T13:38:37.109Z,21.40
2023-02-06T13:43:41.363Z,21.40
2023-02-06T13:49:02.303Z,21.30
2023-02-06T13:54:46.060Z,21.30
2023-02-06T13:59:51.789Z,21.30
2023-02-06T14:04:54.771Z,21.20
2023-02-06T14:10:40.568Z,21.20
2023-02-06T14:15:52.005Z,21.30
2023-02-06T14:21:04.938Z,21.50
2023-02-06T14:26:25.538Z,21.60
2023-02-06T14:31:46.609Z,21.70
2023-02-06T14:37:07.291Z,21.70
2023-02-06T14:42:17.478Z,21.70
2023-02-06T14:47:25.568Z,21.70
2023-02-06T14:52:33.275Z,21.80
2023-02-06T14:57:39.128Z,21.90
2023-02-06T15:02:41.981Z,22.00
2023-02-06T15:07:44.855Z,22.10
2023-02-06T15:12:54.521Z,22.10
2023-02-06T15:18:02.207Z,22.00
2023-02-06T15:23:17.599Z,22.00
2023-02-06T15:28:26.950Z,22.00
2023-02-06T15:33:31.662Z,21.90
2023-02-06T15:38:35.053Z,22.00
2023-02-06T15:43:39.842Z,22.00
2023-02-06T15:48:49.952Z,22.10
2023-02-06T15:54:05.898Z,22.10
2023-02-06T15:59:17.655Z,22.20
2023-02-06T16:04:25.103Z,22.20
2023-02-06T16:09:28.312Z,22.20
2023-02-06T16:14:36.320Z,22.10
2023-02-06T16:19:47.979Z,22.10
2023-02-06T16:24:52.736Z,22.10
2023-02-06T16:29:58.387Z,22.20
2023-02-06T16:35:02.141Z,22.40
2023-02-06T16:40:05.918Z,22.80
2023-02-06T16:45:17.742Z,23.30
2023-02-06T16:50:21.519Z,23.80
2023-02-06T16:55:27.161Z,24.10
2023-02-06T17:00:32.634Z,24.30
2023-02-06T17:05:37.317Z,24.40
2023-02-06T17:10:40.185Z,24.50
2023-02-06T17:15:46.986Z,24.60
2023-02-06T17:20:52.689Z,24.60
2023-02-06T17:25:55.665Z,24.60
2023-02-06T17:30:59.964Z,24.70
2023-02-06T17:36:03.345Z,24.70
2023-02-06T17:41:06.432Z,24.80
2023-02-06T17:46:13.086Z,24.90
2023-02-06T17:51:16.199Z,24.90
2023-02-06T17:56:20.459Z,24.90
2023-02-06T18:01:25.124Z,24.80
2023-02-06T18:06:32.198Z,24.80
2023-02-06T18:11:35.728Z,24.70
2023-02-06T18:16:42.782Z,24.60
2023-02-06T18:21:45.771Z,24.60
2023-02-06T18:26:48.782Z,24.50
2023-02-06T18:31:53.090Z,24.50
2023-02-06T18:36:56.507Z,24.40
2023-02-06T18:42:17.010Z,24.40
2023-02-06T18:47:21.211Z,24.40
2023-02-06T18:52:24.176Z,24.30
2023-02-06T18:57:27.054Z,24.20
2023-02-06T19:02:31.283Z,24.00
2023-02-06T19:07:34.525Z,23.90
2023-02-06T19:12:38.046Z,23.80
2023-02-06T19:17:42.515Z,23.80
2023-02-06T19:22:45.381Z,23.70
2023-02-06T19:27:48.362Z,23.70
2023-02-06T19:32:52.615Z,23.70
2023-02-06T19:37:55.457Z,23.90
2023-02-06T19:42:58.363Z,24.10
2023-02-06T19:48:02.640Z,24.40
2023-02-06T19:53:05.879Z,24.70
2023-02-06T19:58:08.767Z,25.00
2023-02-06T20:03:14.303Z,25.10
2023-02-06T20:08:17.276Z,25.20
2023-02-06T20:13:20.358Z,25.30
2023-02-06T20:18:24.534Z,25.50
2023-02-06T20:23:27.862Z,25.70
2023-02-06T20:28:31.115Z,25.80
2023-02-06T20:33:38.344Z,25.90
2023-02-06T20:38:41.806Z,25.90
2023-02-06T20:43:47.823Z,26.10
2023-02-06T20:48:56.961Z,26.30
2023-02-06T20:53:59.867Z,26.30
2023-02-06T20:59:03.002Z,26.40
2023-02-06T21:04:09.084Z,26.40
2023-02-06T21:09:12.607Z,26.40
2023-02-06T21:14:16.088Z,26.30
2023-02-06T21:19:21.570Z,26.20
2023-02-06T21:24:25.257Z,26.20
2023-02-06T21:29:28.141Z,26.10
2023-02-06T21:34:32.406Z,26.00
2023-02-06T21:39:37.819Z,25.90
2023-02-06T21:44:40.755Z,25.80
2023-02-06T21:49:46.349Z,25.90
2023-02-06T21:54:49.241Z,25.90
2023-02-06T21:59:52.071Z,26.00
2023-02-06T22:04:56.502Z,26.10
2023-02-06T22:09:59.390Z,26.20
2023-02-06T22:15:02.550Z,26.30
2023-02-06T22:20:07.473Z,26.30
2023-02-06T22:25:11.625Z,26.30
2023-02-06T22:30:15.168Z,26.30
2023-02-06T22:35:19.619Z,26.30
2023-02-06T22:40:22.447Z,26.30
2023-02-06T22:45:25.312Z,26.20
2023-02-06T22:50:29.637Z,26.20
2023-02-06T22:55:52.756Z,26.10
2023-02-06T23:01:02.607Z,26.00
2023-02-06T23:06:09.641Z,25.80
2023-02-06T23:11:13.655Z,25.80
2023-02-06T23:16:16.703Z,25.60
2023-02-06T23:21:22.870Z,25.50
2023-02-06T23:26:25.727Z,25.40
2023-02-06T23:31:29.904Z,25.40
2023-02-06T23:36:34.513Z,25.40
2023-02-06T23:41:37.422Z,25.40
2023-02-06T23:46:41.266Z,25.40
2023-02-06T23:51:45.535Z,25.30
2023-02-06T23:56:48.408Z,25.30
